createdAt,value
2023-03-05T00:01:38.422Z,-2.62
2023-03-05T00:04:08.284Z,-2.67
2023-03-05T00:06:37.639Z,-2.72
2023-03-05T00:09:05.877Z,-2.78
2023-03-05T00:11:38.334Z,-2.83
2023-03-05T00:14:06.891Z,-2.88
2023-03-05T00:16:34.999Z,-2.94
2023-03-05T00:19:05.663Z,-3.00
2023-03-05T00:21:36.540Z,-3.04
2023-03-05T00:24:11.799Z,-3.08
2023-03-05T00:26:42.422Z,-3.12
2023-03-05T00:29:11.693Z,-3.17
2023-03-05T00:31:44.412Z,-3.21
2023-03-05T00:34:14.108Z,-3.24
2023-03-05T00:36:43.279Z,-3.27
2023-03-05T00:39:12.302Z,-3.30
2023-03-05T00:41:40.587Z,-3.33
2023-03-05T00:45:53.461Z,-3.36
2023-03-05T00:48:21.941Z,-3.37
2023-03-05T00:50:49.005Z,-3.39
2023-03-05T00:53:15.775Z,-3.40
2023-03-05T00:55:42.357Z,-3.42
2023-03-05T00:58:09.416Z,-3.45
2023-03-05T01:00:36.098Z,-3.47
2023-03-05T01:03:04.064Z,-3.49
2023-03-05T01:05:31.114Z,-3.51
2023-03-05T01:07:58.888Z,-3.53
2023-03-05T01:10:31.755Z,-3.57
2023-03-05T01:13:00.941Z,-3.59
2023-03-05T01:15:28.313Z,-3.62
2023-03-05T01:17:55.045Z,-3.65
2023-03-05T01:20:21.873Z,-3.67
2023-03-05T01:22:49.042Z,-3.68
2023-03-05T01:25:16.121Z,-3.71
2023-03-05T01:27:42.781Z,-3.72
2023-03-05T01:30:12.718Z,-3.74
2023-03-05T01:32:40.457Z,-3.76
2023-03-05T01:35:07.938Z,-3.77
2023-03-05T01:37:35.913Z,-3.79
2023-03-05T01:40:02.837Z,-3.80
2023-03-05T01:42:34.380Z,-3.82
2023-03-05T01:45:14.465Z,-3.83
2023-03-05T01:47:41.136Z,-3.85
2023-03-05T01:50:19.323Z,-3.87
2023-03-05T01:52:50.050Z,-3.88
2023-03-05T01:55:22.516Z,-3.90
2023-03-05T01:57:51.630Z,-3.92
2023-03-05T02:00:20.621Z,-3.94
2023-03-05T02:02:49.607Z,-3.96
2023-03-05T02:05:26.508Z,-3.97
2023-03-05T02:07:55.099Z,-3.98
2023-03-05T02:10:29.758Z,-3.99
2023-03-05T02:12:58.365Z,-4.01
2023-03-05T02:15:25.050Z,-4.01
2023-03-05T02:17:51.669Z,-4.02
2023-03-05T02:20:28.603Z,-4.02
2023-03-05T02:22:55.613Z,-4.01
2023-03-05T02:25:25.813Z,-4.00
2023-03-05T02:28:11.074Z,-4.00
2023-03-05T02:30:41.013Z,-3.99
2023-03-05T02:33:07.956Z,-3.98
2023-03-05T02:35:35.320Z,-3.97
2023-03-05T02:38:03.271Z,-3.96
2023-03-05T02:40:29.887Z,-3.94
2023-03-05T02:42:56.465Z,-3.91
2023-03-05T02:45:23.576Z,-3.89
2023-03-05T02:47:50.510Z,-3.85
2023-03-05T02:50:17.393Z,-3.81
2023-03-05T02:52:44.672Z,-3.77
2023-03-05T02:55:14.905Z,-3.74
2023-03-05T02:57:42.154Z,-3.73
2023-03-05T03:00:09.909Z,-3.72
2023-03-05T03:02:38.328Z,-3.71
2023-03-05T03:05:07.532Z,-3.70
2023-03-05T03:07:35.997Z,-3.70
2023-03-05T03:10:05.000Z,-3.69
2023-03-05T03:12:31.631Z,-3.68
2023-03-05T03:15:00.216Z,-3.66
2023-03-05T03:17:36.302Z,-3.49
2023-03-05T03:20:07.550Z,-3.34
2023-03-05T03:22:34.083Z,-3.32
2023-03-05T03:25:00.908Z,-3.33
2023-03-05T03:27:27.826Z,-3.34
2023-03-05T03:29:54.445Z,-3.34
2023-03-05T03:32:21.685Z,-3.34
2023-03-05T03:34:48.456Z,-3.34
2023-03-05T03:37:15.545Z,-3.35
2023-03-05T03:39:42.173Z,-3.36
2023-03-05T03:42:09.345Z,-3.37
2023-03-05T03:44:36.087Z,-3.38
2023-03-05T03:47:03.512Z,-3.39
2023-03-05T03:49:30.796Z,-3.40
2023-03-05T03:51:58.160Z,-3.43
2023-03-05T03:54:24.842Z,-3.44
2023-03-05T03:56:52.028Z,-3.43
2023-03-05T03:59:19.100Z,-3.44
2023-03-05T04:01:45.963Z,-3.43
2023-03-05T04:04:12.671Z,-3.41
2023-03-05T04:06:39.988Z,-3.27
2023-03-05T04:09:13.103Z,-3.17
2023-03-05T04:11:39.813Z,-3.19
2023-03-05T04:14:07.172Z,-3.23
2023-03-05T04:16:36.834Z,-3.26
2023-03-05T04:19:03.535Z,-3.26
2023-03-05T04:21:30.205Z,-3.27
2023-03-05T04:23:57.112Z,-3.28
2023-03-05T04:26:23.896Z,-3.30
2023-03-05T04:28:50.438Z,-3.31
2023-03-05T04:31:17.036Z,-3.32
2023-03-05T04:33:46.868Z,-3.35
2023-03-05T04:36:13.499Z,-3.36
2023-03-05T04:38:46.040Z,-3.36
2023-03-05T04:41:12.742Z,-3.35
2023-03-05T04:43:39.350Z,-3.33
2023-03-05T04:46:06.061Z,-3.32
2023-03-05T04:48:32.872Z,-3.31
2023-03-05T04:51:00.278Z,-3.31
2023-03-05T04:53:27.340Z,-3.32
2023-03-05T04:56:00.852Z,-3.33
2023-03-05T04:58:28.152Z,-3.32
2023-03-05T05:01:00.431Z,-3.30
2023-03-05T05:03:27.096Z,-3.16
2023-03-05T05:05:55.495Z,-3.04
2023-03-05T05:08:22.692Z,-3.04
2023-03-05T05:11:01.349Z,-3.03
2023-03-05T05:13:30.401Z,-3.04
2023-03-05T05:15:57.315Z,-3.06
2023-03-05T05:18:24.620Z,-3.08
2023-03-05T05:20:52.643Z,-3.09
2023-03-05T05:23:19.419Z,-3.10
2023-03-05T05:25:46.460Z,-3.12
2023-03-05T05:28:13.715Z,-3.12
2023-03-05T05:30:40.762Z,-3.12
2023-03-05T05:33:08.015Z,-3.11
2023-03-05T05:35:38.755Z,-3.10
2023-03-05T05:38:05.483Z,-3.10
2023-03-05T05:40:33.552Z,-3.10
2023-03-05T05:43:00.251Z,-3.07
2023-03-05T05:45:26.915Z,-3.07
2023-03-05T05:47:53.998Z,-3.07
2023-03-05T05:50:26.770Z,-3.04
2023-03-05T05:52:53.848Z,-3.02
2023-03-05T05:55:20.708Z,-2.98
2023-03-05T05:58:07.092Z,-2.93
2023-03-05T06:00:33.836Z,-2.87
2023-03-05T06:03:00.450Z,-2.81
2023-03-05T06:05:27.084Z,-2.76
2023-03-05T06:07:54.186Z,-2.71
2023-03-05T06:10:21.044Z,-2.68
2023-03-05T06:12:48.098Z,-2.67
2023-03-05T06:15:14.973Z,-2.68
2023-03-05T06:17:42.213Z,-2.66
2023-03-05T06:20:11.915Z,-2.63
2023-03-05T06:22:38.982Z,-2.57
2023-03-05T06:25:07.161Z,-2.49
2023-03-05T06:27:34.866Z,-2.41
2023-03-05T06:30:01.844Z,-2.34
2023-03-05T06:32:29.118Z,-2.26
2023-03-05T06:34:55.767Z,-2.19
2023-03-05T06:37:22.448Z,-2.15
2023-03-05T06:39:49.292Z,-2.10
2023-03-05T06:42:18.792Z,-2.04
2023-03-05T06:44:47.258Z,-2.00
2023-03-05T06:47:14.953Z,-1.96
2023-03-05T06:49:42.383Z,-1.93
2023-03-05T06:52:12.185Z,-1.91
2023-03-05T06:54:39.701Z,-1.89
2023-03-05T06:57:06.693Z,-1.83
2023-03-05T06:59:33.624Z,-1.80
2023-03-05T07:02:00.607Z,-1.76
2023-03-05T07:04:27.623Z,-1.70
2023-03-05T07:06:55.250Z,-1.66
2023-03-05T07:09:22.202Z,-1.65
2023-03-05T07:11:49.720Z,-1.65
2023-03-05T07:14:17.210Z,-1.62
2023-03-05T07:16:44.888Z,-1.53
2023-03-05T07:19:14.884Z,-1.41
2023-03-05T07:21:41.667Z,-1.29
2023-03-05T07:24:13.713Z,-1.15
2023-03-05T07:26:42.173Z,-1.04
2023-03-05T07:29:09.349Z,-0.97
2023-03-05T07:31:38.745Z,-0.94
2023-03-05T07:34:05.910Z,-0.94
2023-03-05T07:36:34.383Z,-0.95
2023-03-05T07:39:05.303Z,-0.93
2023-03-05T07:41:35.069Z,-0.88
2023-03-05T07:44:02.849Z,-0.79
2023-03-05T07:46:32.199Z,-0.70
2023-03-05T07:48:59.670Z,-0.71
2023-03-05T07:51:26.672Z,-0.68
2023-03-05T07:53:57.125Z,-0.73
2023-03-05T07:56:31.376Z,-0.80
2023-03-05T07:58:59.145Z,-0.83
2023-03-05T08:01:26.487Z,-0.83
2023-03-05T08:03:53.124Z,-0.79
2023-03-05T08:06:20.432Z,-0.74
2023-03-05T08:08:48.296Z,-0.64
2023-03-05T08:11:16.584Z,-0.62
2023-03-05T08:13:44.860Z,-0.59
2023-03-05T08:16:20.294Z,-0.47
2023-03-05T08:18:54.876Z,-0.33
2023-03-05T08:21:26.448Z,-0.22
2023-03-05T08:23:53.247Z,-0.09
2023-03-05T08:26:21.415Z,-0.02
2023-03-05T08:28:48.429Z,0.02
2023-03-05T08:31:20.934Z,0.07
2023-03-05T08:33:51.649Z,0.15
2023-03-05T08:36:18.776Z,0.21
2023-03-05T08:38:47.988Z,0.24
2023-03-05T08:41:15.854Z,0.26
2023-03-05T08:43:42.750Z,0.30
2023-03-05T08:46:11.454Z,0.48
2023-03-05T08:48:38.668Z,0.70
2023-03-05T08:51:09.571Z,0.87
2023-03-05T08:53:39.112Z,1.03
2023-03-05T08:56:18.034Z,1.10
2023-03-05T08:58:48.338Z,1.17
2023-03-05T09:01:17.829Z,1.30
2023-03-05T09:03:46.015Z,1.49
2023-03-05T09:06:12.950Z,1.64
2023-03-05T09:08:42.042Z,1.75
2023-03-05T09:11:09.598Z,1.85
2023-03-05T09:13:36.582Z,2.01
2023-03-05T09:16:07.650Z,2.28
2023-03-05T09:18:36.188Z,2.58
2023-03-05T09:21:06.954Z,2.93
2023-03-05T09:23:33.854Z,3.27
2023-03-05T09:26:01.781Z,3.54
2023-03-05T09:28:30.491Z,3.83
2023-03-05T09:30:57.193Z,4.18
2023-03-05T09:33:24.306Z,4.54
2023-03-05T09:35:51.115Z,4.97
2023-03-05T09:38:18.797Z,5.53
2023-03-05T09:41:08.092Z,6.20
2023-03-05T09:44:01.208Z,6.80
2023-03-05T09:46:43.280Z,7.10
2023-03-05T09:49:33.264Z,7.28
2023-03-05T09:52:14.837Z,7.29
2023-03-05T09:54:43.070Z,7.29
2023-03-05T09:57:21.608Z,7.53
2023-03-05T10:00:11.675Z,7.92
2023-03-05T10:02:48.721Z,8.29
2023-03-05T10:05:29.194Z,8.61
2023-03-05T10:08:00.824Z,8.90
2023-03-05T10:10:39.241Z,9.00
2023-03-05T10:13:18.233Z,8.76
2023-03-05T10:16:26.132Z,8.38
2023-03-05T10:19:02.400Z,7.99
2023-03-05T10:21:50.838Z,7.50
2023-03-05T10:24:47.687Z,6.93
2023-03-05T10:27:21.981Z,6.72
2023-03-05T10:30:38.511Z,6.97
2023-03-05T10:33:20.116Z,7.67
2023-03-05T10:36:05.620Z,8.13
2023-03-05T10:38:52.827Z,8.46
2023-03-05T10:41:39.418Z,8.77
2023-03-05T10:44:39.282Z,8.78
2023-03-05T10:47:29.031Z,8.81
2023-03-05T10:49:57.752Z,8.98
2023-03-05T10:52:34.771Z,8.85
2023-03-05T10:55:13.253Z,8.52
2023-03-05T10:57:40.890Z,8.02
2023-03-05T11:00:22.867Z,7.67
2023-03-05T11:03:01.128Z,7.23
2023-03-05T11:05:38.077Z,6.71
2023-03-05T11:08:33.653Z,6.24
2023-03-05T11:11:09.741Z,5.70
2023-03-05T11:13:47.778Z,5.18
2023-03-05T11:16:19.909Z,4.76
2023-03-05T11:18:48.169Z,4.56
2023-03-05T11:21:20.190Z,4.44
2023-03-05T11:24:08.517Z,4.27
2023-03-05T11:26:35.843Z,4.16
2023-03-05T11:29:04.264Z,4.06
2023-03-05T11:31:32.107Z,4.02
2023-03-05T11:34:01.562Z,4.14
2023-03-05T11:36:56.104Z,4.27
2023-03-05T11:39:23.327Z,4.46
2023-03-05T11:41:54.161Z,4.41
2023-03-05T11:44:46.232Z,4.28
2023-03-05T11:47:27.971Z,4.24
2023-03-05T11:50:02.989Z,4.35
2023-03-05T11:52:33.854Z,4.37
2023-03-05T11:55:12.878Z,4.39
2023-03-05T11:57:52.352Z,4.49
2023-03-05T12:00:23.921Z,4.63
2023-03-05T12:02:52.613Z,4.83
2023-03-05T12:05:19.535Z,4.82
2023-03-05T12:07:51.324Z,4.65
2023-03-05T12:10:23.515Z,4.33
2023-03-05T12:13:02.976Z,3.98
2023-03-05T12:15:59.254Z,3.67
2023-03-05T12:18:38.022Z,3.34
2023-03-05T12:21:26.100Z,3.07
2023-03-05T12:24:01.266Z,2.86
2023-03-05T12:27:03.643Z,2.74
2023-03-05T12:29:37.032Z,2.62
2023-03-05T12:32:21.493Z,2.52
2023-03-05T12:34:50.122Z,2.44
2023-03-05T12:37:21.249Z,2.45
2023-03-05T12:40:08.885Z,2.51
2023-03-05T12:42:37.788Z,2.55
2023-03-05T12:45:23.246Z,2.62
2023-03-05T12:47:56.613Z,2.70
2023-03-05T12:50:28.906Z,2.78
2023-03-05T12:53:11.412Z,2.89
2023-03-05T12:55:45.482Z,3.05
2023-03-05T12:58:28.679Z,3.15
2023-03-05T13:04:00.391Z,3.33
2023-03-05T13:06:27.686Z,3.29
2023-03-05T13:09:07.908Z,3.18
2023-03-05T13:11:37.135Z,3.16
2023-03-05T13:14:04.325Z,3.35
2023-03-05T13:16:41.015Z,3.51
2023-03-05T13:19:15.487Z,3.60
2023-03-05T13:21:42.772Z,3.99
2023-03-05T13:24:17.460Z,4.76
2023-03-05T13:26:48.240Z,5.86
2023-03-05T13:29:21.432Z,6.62
2023-03-05T13:32:05.104Z,7.19
2023-03-05T13:34:47.333Z,7.61
2023-03-05T13:37:20.719Z,7.58
2023-03-05T13:39:58.077Z,7.21
2023-03-05T13:42:28.031Z,6.73
2023-03-05T13:45:03.774Z,6.25
2023-03-05T13:47:32.188Z,5.68
2023-03-05T13:50:01.442Z,5.19
2023-03-05T13:52:35.371Z,4.76
2023-03-05T13:55:12.064Z,4.43
2023-03-05T13:57:43.377Z,4.25
2023-03-05T14:00:33.615Z,4.10
2023-03-05T14:03:26.009Z,3.89
2023-03-05T14:05:53.347Z,3.71
2023-03-05T14:08:22.022Z,3.55
2023-03-05T14:10:49.192Z,3.42
2023-03-05T14:13:21.145Z,3.24
2023-03-05T14:16:23.930Z,3.06
2023-03-05T14:18:58.122Z,2.90
2023-03-05T14:21:25.385Z,2.83
2023-03-05T14:23:54.177Z,2.76
2023-03-05T14:26:34.238Z,2.67
2023-03-05T14:29:03.135Z,2.60
2023-03-05T14:31:36.621Z,2.54
2023-03-05T14:34:04.983Z,2.53
2023-03-05T14:36:33.831Z,2.51
2023-03-05T14:39:01.767Z,2.47
2023-03-05T14:41:37.483Z,2.39
2023-03-05T14:44:15.087Z,2.30
2023-03-05T14:46:48.882Z,2.24
2023-03-05T14:49:17.128Z,2.21
2023-03-05T14:51:44.460Z,2.13
2023-03-05T14:54:20.074Z,2.04
2023-03-05T14:56:49.048Z,1.93
2023-03-05T14:59:17.294Z,1.85
2023-03-05T15:01:44.393Z,1.76
2023-03-05T15:04:20.358Z,1.70
2023-03-05T15:06:50.133Z,1.65
2023-03-05T15:09:19.142Z,1.62
2023-03-05T15:11:48.338Z,1.62
2023-03-05T15:14:15.330Z,1.60
2023-03-05T15:16:43.086Z,1.60
2023-03-05T15:19:12.659Z,1.58
2023-03-05T15:21:40.398Z,1.54
2023-03-05T15:24:14.236Z,1.51
2023-03-05T15:26:41.040Z,1.47
2023-03-05T15:29:07.639Z,1.43
2023-03-05T15:31:37.748Z,1.38
2023-03-05T15:34:04.853Z,1.32
2023-03-05T15:36:33.583Z,1.25
2023-03-05T15:39:00.796Z,1.21
2023-03-05T15:41:27.677Z,1.18
2023-03-05T15:43:54.580Z,1.14
2023-03-05T15:46:21.386Z,1.09
2023-03-05T15:48:49.576Z,1.05
2023-03-05T15:51:17.293Z,1.03
2023-03-05T15:53:45.867Z,1.00
2023-03-05T15:56:18.603Z,0.94
2023-03-05T15:58:45.374Z,0.89
2023-03-05T16:01:12.297Z,0.82
2023-03-05T16:03:39.436Z,0.75
2023-03-05T16:06:07.742Z,0.70
2023-03-05T16:08:35.422Z,0.67
2023-03-05T16:11:02.576Z,0.64
2023-03-05T16:13:31.927Z,0.61
2023-03-05T16:16:01.844Z,0.57
2023-03-05T16:18:35.514Z,0.54
2023-03-05T16:21:03.108Z,0.52
2023-03-05T16:23:33.647Z,0.51
2023-03-05T16:26:00.473Z,0.51
2023-03-05T16:28:27.758Z,0.50
2023-03-05T16:30:56.190Z,0.48
2023-03-05T16:33:26.587Z,0.44
2023-03-05T16:36:20.234Z,0.42
2023-03-05T16:38:51.796Z,0.40
2023-03-05T16:41:21.111Z,0.38
2023-03-05T16:43:51.209Z,0.38
2023-03-05T16:46:18.043Z,0.39
2023-03-05T16:48:46.017Z,0.40
2023-03-05T16:51:13.736Z,0.39
2023-03-05T16:53:42.943Z,0.37
2023-03-05T16:56:10.714Z,0.34
2023-03-05T16:58:40.060Z,0.32
2023-03-05T17:01:11.586Z,0.29
2023-03-05T17:03:40.788Z,0.26
2023-03-05T17:06:15.330Z,0.23
2023-03-05T17:08:43.181Z,0.19
2023-03-05T17:11:10.098Z,0.17
2023-03-05T17:13:39.347Z,0.16
2023-03-05T17:16:08.743Z,0.16
2023-03-05T17:18:39.317Z,0.19
2023-03-05T17:21:06.926Z,0.21
2023-03-05T17:23:34.942Z,0.23
2023-03-05T17:26:07.470Z,0.25
2023-03-05T17:28:34.751Z,0.25
2023-03-05T17:31:03.361Z,0.25
2023-03-05T17:33:31.636Z,0.24
2023-03-05T17:35:59.866Z,0.21
2023-03-05T17:38:26.729Z,0.19
2023-03-05T17:40:54.751Z,0.17
2023-03-05T17:43:22.149Z,0.16
2023-03-05T17:45:49.271Z,0.15
2023-03-05T17:48:17.423Z,0.13
2023-03-05T17:50:45.853Z,0.13
2023-03-05T17:53:13.499Z,0.12
2023-03-05T17:55:43.015Z,0.09
2023-03-05T17:58:10.865Z,0.06
2023-03-05T18:00:37.810Z,0.02
2023-03-05T18:03:06.368Z,-0.01
2023-03-05T18:05:33.503Z,-0.02
2023-03-05T18:08:03.347Z,-0.03
2023-03-05T18:10:31.318Z,-0.05
2023-03-05T18:12:58.421Z,-0.06
2023-03-05T18:15:27.164Z,-0.08
2023-03-05T18:17:54.669Z,-0.10
2023-03-05T18:20:31.007Z,-0.12
2023-03-05T18:22:59.274Z,-0.15
2023-03-05T18:25:30.303Z,-0.18
2023-03-05T18:28:09.413Z,-0.23
2023-03-05T18:30:37.529Z,-0.27
2023-03-05T18:33:08.625Z,-0.30
2023-03-05T18:35:36.269Z,-0.34
2023-03-05T18:38:03.404Z,-0.38
2023-03-05T18:40:32.017Z,-0.41
2023-03-05T18:43:01.393Z,-0.45
2023-03-05T18:45:28.512Z,-0.48
2023-03-05T18:47:56.349Z,-0.51
2023-03-05T18:50:24.971Z,-0.55
2023-03-05T18:52:52.340Z,-0.61
2023-03-05T18:55:21.662Z,-0.65
2023-03-05T18:57:48.711Z,-0.67
2023-03-05T19:00:17.679Z,-0.71
2023-03-05T19:02:44.829Z,-0.74
2023-03-05T19:05:13.177Z,-0.78
2023-03-05T19:07:40.018Z,-0.81
2023-03-05T19:10:09.104Z,-0.84
2023-03-05T19:12:44.645Z,-0.85
2023-03-05T19:15:12.823Z,-0.89
2023-03-05T19:17:40.066Z,-0.92
2023-03-05T19:20:07.534Z,-0.96
2023-03-05T19:22:37.707Z,-0.99
2023-03-05T19:25:05.782Z,-1.03
2023-03-05T19:27:33.968Z,-1.05
2023-03-05T19:30:00.652Z,-1.08
2023-03-05T19:32:27.614Z,-1.11
2023-03-05T19:34:55.698Z,-1.13
2023-03-05T19:37:22.452Z,-1.15
2023-03-05T19:39:49.286Z,-1.19
2023-03-05T19:42:15.869Z,-1.20
2023-03-05T19:44:42.708Z,-1.22
2023-03-05T19:47:09.679Z,-1.24
2023-03-05T19:49:36.883Z,-1.27
2023-03-05T19:52:05.650Z,-1.30
2023-03-05T19:54:32.778Z,-1.32
2023-03-05T19:56:59.679Z,-1.35
2023-03-05T19:59:26.576Z,-1.36
2023-03-05T20:01:53.316Z,-1.40
2023-03-05T20:04:22.125Z,-1.42
2023-03-05T20:06:49.541Z,-1.43
2023-03-05T20:09:20.294Z,-1.45
2023-03-05T20:11:47.269Z,-1.46
2023-03-05T20:14:14.793Z,-1.47
2023-03-05T20:16:42.724Z,-1.47
2023-03-05T20:19:15.625Z,-1.47
2023-03-05T20:21:42.769Z,-1.49
2023-03-05T20:24:12.843Z,-1.51
2023-03-05T20:26:41.792Z,-1.53
2023-03-05T20:29:08.659Z,-1.56
2023-03-05T20:31:37.518Z,-1.59
2023-03-05T20:34:05.827Z,-1.63
2023-03-05T20:36:36.194Z,-1.66
2023-03-05T20:39:04.172Z,-1.69
2023-03-05T20:41:33.672Z,-1.71
2023-03-05T20:44:02.828Z,-1.75
2023-03-05T20:46:35.145Z,-1.77
2023-03-05T20:49:02.968Z,-1.79
2023-03-05T20:51:35.280Z,-1.82
2023-03-05T20:54:05.262Z,-1.83
2023-03-05T20:56:32.567Z,-1.85
2023-03-05T20:59:02.276Z,-1.86
2023-03-05T21:01:30.165Z,-1.88
2023-03-05T21:04:01.024Z,-1.90
2023-03-05T21:06:28.464Z,-1.92
2023-03-05T21:08:55.456Z,-1.94
2023-03-05T21:11:22.363Z,-1.95
2023-03-05T21:13:49.209Z,-1.97
2023-03-05T21:16:21.742Z,-1.98
2023-03-05T21:18:50.257Z,-1.99
2023-03-05T21:21:17.193Z,-2.01
2023-03-05T21:23:44.205Z,-2.03
2023-03-05T21:26:13.009Z,-2.05
2023-03-05T21:28:40.398Z,-2.06
2023-03-05T21:31:16.445Z,-2.08
2023-03-05T21:33:44.103Z,-2.10
2023-03-05T21:36:10.948Z,-2.11
2023-03-05T21:38:38.264Z,-2.12
2023-03-05T21:41:08.988Z,-2.11
2023-03-05T21:43:36.168Z,-2.11
2023-03-05T21:46:03.611Z,-2.12
2023-03-05T21:48:30.777Z,-2.11
2023-03-05T21:50:57.942Z,-2.12
2023-03-05T21:53:27.841Z,-2.12
2023-03-05T21:56:20.248Z,-2.11
2023-03-05T21:58:51.754Z,-2.08
2023-03-05T22:01:20.669Z,-2.07
2023-03-05T22:03:47.513Z,-2.05
2023-03-05T22:06:16.174Z,-2.03
2023-03-05T22:08:42.825Z,-2.00
2023-03-05T22:11:17.416Z,-1.97
2023-03-05T22:13:44.603Z,-1.94
2023-03-05T22:16:13.753Z,-1.93
2023-03-05T22:18:40.533Z,-1.93
2023-03-05T22:21:15.613Z,-1.95
2023-03-05T22:23:42.299Z,-1.96
2023-03-05T22:26:09.450Z,-1.98
2023-03-05T22:28:38.312Z,-1.99
2023-03-05T22:31:05.369Z,-2.00
2023-03-05T22:33:32.032Z,-2.00
2023-03-05T22:35:58.829Z,-2.00
2023-03-05T22:38:26.303Z,-2.00
2023-03-05T22:40:55.180Z,-2.00
2023-03-05T22:43:21.939Z,-2.00
2023-03-05T22:45:48.650Z,-2.00
2023-03-05T22:48:15.351Z,-1.99
2023-03-05T22:50:43.334Z,-2.00
2023-03-05T22:53:10.820Z,-1.99
2023-03-05T22:55:40.858Z,-1.98
2023-03-05T22:58:07.793Z,-1.96
2023-03-05T23:00:35.157Z,-1.94
2023-03-05T23:03:01.970Z,-1.93
2023-03-05T23:05:30.006Z,-1.90
2023-03-05T23:07:56.949Z,-1.89
2023-03-05T23:10:28.024Z,-1.87
2023-03-05T23:12:55.958Z,-1.86
2023-03-05T23:15:34.169Z,-1.86
2023-03-05T23:18:01.605Z,-1.84
2023-03-05T23:20:31.279Z,-1.83
2023-03-05T23:22:58.038Z,-1.83
2023-03-05T23:25:26.769Z,-1.82
2023-03-05T23:27:54.118Z,-1.82
2023-03-05T23:30:28.375Z,-1.80
2023-03-05T23:33:01.338Z,-1.79
2023-03-05T23:35:35.111Z,-1.76
2023-03-05T23:38:05.985Z,-1.74
2023-03-05T23:40:35.994Z,-1.72
2023-03-05T23:43:02.735Z,-1.71
2023-03-05T23:45:29.559Z,-1.69
2023-03-05T23:47:57.906Z,-1.69
2023-03-05T23:50:27.906Z,-1.67
2023-03-05T23:52:55.128Z,-1.64
2023-03-05T23:55:27.660Z,-1.63
2023-03-05T23:57:58.066Z,-1.59
